sensor_id;sensor_type;location;lat;lon;timestamp;temperature;humidity
15819;DHT22;8010;53.986;12.106;2023-06-14T00:00:52;13.30;99.90
15819;DHT22;8010;53.986;12.106;2023-06-14T00:03:18;13.30;99.90
15819;DHT22;8010;53.986;12.106;2023-06-14T00:05:45;13.30;99.90
15819;DHT22;8010;53.986;12.106;2023-06-14T00:08:11;13.20;99.90
15819;DHT22;8010;53.986;12.106;2023-06-14T00:10:37;13.20;99.90
15819;DHT22;8010;53.986;12.106;2023-06-14T00:13:06;13.20;99.90
15819;DHT22;8010;53.986;12.106;2023-06-14T00:15:32;13.20;99.90
15819;DHT22;8010;53.986;12.106;2023-06-14T00:17:58;13.20;99.90
15819;DHT22;8010;53.986;12.106;2023-06-14T00:20:27;13.20;99.90
15819;DHT22;8010;53.986;12.106;2023-06-14T00:22:54;13.70;99.90
15819;DHT22;8010;53.986;12.106;2023-06-14T00:25:22;13.20;99.90
15819;DHT22;8010;53.986;12.106;2023-06-14T00:27:47;13.10;99.90
15819;DHT22;8010;53.986;12.106;2023-06-14T00:30:13;13.10;99.90
15819;DHT22;8010;53.986;12.106;2023-06-14T00:32:39;13.10;99.90
15819;DHT22;8010;53.986;12.106;2023-06-14T00:35:04;13.10;99.90
15819;DHT22;8010;53.986;12.106;2023-06-14T00:37:30;13.10;99.90
15819;DHT22;8010;53.986;12.106;2023-06-14T00:39:55;13.00;99.90
15819;DHT22;8010;53.986;12.106;2023-06-14T00:42:28;13.00;99.90
15819;DHT22;8010;53.986;12.106;2023-06-14T00:44:54;13.00;99.90
15819;DHT22;8010;53.986;12.106;2023-06-14T00:47:19;13.00;99.90
15819;DHT22;8010;53.986;12.106;2023-06-14T00:49:46;12.90;99.90
15819;DHT22;8010;53.986;12.106;2023-06-14T00:52:13;12.90;99.90
15819;DHT22;8010;53.986;12.106;2023-06-14T00:54:40;12.80;99.90
15819;DHT22;8010;53.986;12.106;2023-06-14T00:57:06;12.70;99.90
15819;DHT22;8010;53.986;12.106;2023-06-14T00:59:33;12.60;99.90
15819;DHT22;8010;53.986;12.106;2023-06-14T01:01:58;12.60;99.90
15819;DHT22;8010;53.986;12.106;2023-06-14T01:04:24;12.50;99.90
15819;DHT22;8010;53.986;12.106;2023-06-14T01:12:13;12.40;99.90
15819;DHT22;8010;53.986;12.106;2023-06-14T01:14:41;12.40;99.90
15819;DHT22;8010;53.986;12.106;2023-06-14T01:17:07;12.40;99.90
15819;DHT22;8010;53.986;12.106;2023-06-14T01:19:41;12.40;99.90
15819;DHT22;8010;53.986;12.106;2023-06-14T01:22:08;12.50;99.90
15819;DHT22;8010;53.986;12.106;2023-06-14T01:24:33;12.50;99.90
15819;DHT22;8010;53.986;12.106;2023-06-14T01:27:00;12.50;99.90
15819;DHT22;8010;53.986;12.106;2023-06-14T01:29:27;12.50;99.90
15819;DHT22;8010;53.986;12.106;2023-06-14T01:31:57;12.40;99.90
15819;DHT22;8010;53.986;12.106;2023-06-14T01:34:23;12.40;99.90
15819;DHT22;8010;53.986;12.106;2023-06-14T01:36:50;12.40;99.90
15819;DHT22;8010;53.986;12.106;2023-06-14T01:39:16;12.40;99.90
15819;DHT22;8010;53.986;12.106;2023-06-14T01:41:44;12.30;99.90
15819;DHT22;8010;53.986;12.106;2023-06-14T01:44:12;12.30;99.90
15819;DHT22;8010;53.986;12.106;2023-06-14T01:46:38;12.30;99.90
15819;DHT22;8010;53.986;12.106;2023-06-14T01:49:04;12.30;99.90
15819;DHT22;8010;53.986;12.106;2023-06-14T01:51:29;12.30;99.90
15819;DHT22;8010;53.986;12.106;2023-06-14T01:53:55;12.30;99.90
15819;DHT22;8010;53.986;12.106;2023-06-14T01:56:20;12.30;99.90
15819;DHT22;8010;53.986;12.106;2023-06-14T01:58:47;12.30;99.90
15819;DHT22;8010;53.986;12.106;2023-06-14T02:04:36;12.20;99.90
15819;DHT22;8010;53.986;12.106;2023-06-14T02:07:01;12.20;99.90
15819;DHT22;8010;53.986;12.106;2023-06-14T02:09:27;12.10;99.90
15819;DHT22;8010;53.986;12.106;2023-06-14T02:11:52;12.00;99.90
15819;DHT22;8010;53.986;12.106;2023-06-14T02:14:18;11.90;99.90
15819;DHT22;8010;53.986;12.106;2023-06-14T02:16:43;11.90;99.90
15819;DHT22;8010;53.986;12.106;2023-06-14T02:19:15;11.90;99.90
15819;DHT22;8010;53.986;12.106;2023-06-14T02:21:41;11.90;99.90
15819;DHT22;8010;53.986;12.106;2023-06-14T02:24:07;11.90;99.90
15819;DHT22;8010;53.986;12.106;2023-06-14T02:26:32;11.90;99.90
15819;DHT22;8010;53.986;12.106;2023-06-14T02:28:58;11.90;99.90
15819;DHT22;8010;53.986;12.106;2023-06-14T02:31:23;11.80;99.90
15819;DHT22;8010;53.986;12.106;2023-06-14T02:33:49;11.80;99.90
15819;DHT22;8010;53.986;12.106;2023-06-14T02:36:15;11.80;99.90
15819;DHT22;8010;53.986;12.106;2023-06-14T02:38:40;11.80;99.90
15819;DHT22;8010;53.986;12.106;2023-06-14T02:41:06;11.70;99.90
15819;DHT22;8010;53.986;12.106;2023-06-14T02:43:32;11.60;99.90
15819;DHT22;8010;53.986;12.106;2023-06-14T02:45:57;11.60;99.90
15819;DHT22;8010;53.986;12.106;2023-06-14T02:48:23;11.60;99.90
15819;DHT22;8010;53.986;12.106;2023-06-14T02:50:48;11.60;99.90
15819;DHT22;8010;53.986;12.106;2023-06-14T02:53:14;11.60;99.90
15819;DHT22;8010;53.986;12.106;2023-06-14T02:55:39;11.60;99.90
15819;DHT22;8010;53.986;12.106;2023-06-14T02:58:06;11.50;99.90
15819;DHT22;8010;53.986;12.106;2023-06-14T03:00:31;11.60;99.90
15819;DHT22;8010;53.986;12.106;2023-06-14T03:02:57;11.50;99.90
15819;DHT22;8010;53.986;12.106;2023-06-14T03:05:27;11.50;99.90
15819;DHT22;8010;53.986;12.106;2023-06-14T03:07:53;11.40;99.90
15819;DHT22;8010;53.986;12.106;2023-06-14T03:10:19;11.40;99.90
15819;DHT22;8010;53.986;12.106;2023-06-14T03:12:45;11.30;99.90
15819;DHT22;8010;53.986;12.106;2023-06-14T03:15:10;11.30;99.90
15819;DHT22;8010;53.986;12.106;2023-06-14T03:17:38;11.30;99.90
15819;DHT22;8010;53.986;12.106;2023-06-14T03:20:04;11.30;99.90
15819;DHT22;8010;53.986;12.106;2023-06-14T03:22:30;11.20;99.90
15819;DHT22;8010;53.986;12.106;2023-06-14T03:24:58;11.20;99.90
15819;DHT22;8010;53.986;12.106;2023-06-14T03:27:24;11.20;99.90
15819;DHT22;8010;53.986;12.106;2023-06-14T03:29:50;11.20;99.90
15819;DHT22;8010;53.986;12.106;2023-06-14T03:32:16;11.10;99.90
15819;DHT22;8010;53.986;12.106;2023-06-14T03:34:42;11.10;99.90
15819;DHT22;8010;53.986;12.106;2023-06-14T03:37:08;11.10;99.90
15819;DHT22;8010;53.986;12.106;2023-06-14T03:39:33;11.10;99.90
15819;DHT22;8010;53.986;12.106;2023-06-14T03:41:59;11.10;99.90
15819;DHT22;8010;53.986;12.106;2023-06-14T03:44:26;11.20;99.90
15819;DHT22;8010;53.986;12.106;2023-06-14T03:46:52;11.20;99.90
15819;DHT22;8010;53.986;12.106;2023-06-14T03:49:18;11.20;99.90
15819;DHT22;8010;53.986;12.106;2023-06-14T03:51:44;11.30;99.90
15819;DHT22;8010;53.986;12.106;2023-06-14T03:54:10;11.30;99.90
15819;DHT22;8010;53.986;12.106;2023-06-14T03:56:35;11.30;99.90
15819;DHT22;8010;53.986;12.106;2023-06-14T03:59:01;11.30;99.90
15819;DHT22;8010;53.986;12.106;2023-06-14T04:01:27;11.40;99.90
15819;DHT22;8010;53.986;12.106;2023-06-14T04:03:56;11.40;99.90
15819;DHT22;8010;53.986;12.106;2023-06-14T04:06:22;11.50;99.90
15819;DHT22;8010;53.986;12.106;2023-06-14T04:08:50;11.50;99.90
15819;DHT22;8010;53.986;12.106;2023-06-14T04:11:16;12.00;99.90
15819;DHT22;8010;53.986;12.106;2023-06-14T04:13:41;11.70;99.90
15819;DHT22;8010;53.986;12.106;2023-06-14T04:16:07;11.80;99.90
15819;DHT22;8010;53.986;12.106;2023-06-14T04:18:32;11.90;99.90
15819;DHT22;8010;53.986;12.106;2023-06-14T04:20:58;12.00;99.90
15819;DHT22;8010;53.986;12.106;2023-06-14T04:23:24;12.10;99.90
15819;DHT22;8010;53.986;12.106;2023-06-14T04:25:50;12.10;99.90
15819;DHT22;8010;53.986;12.106;2023-06-14T04:28:15;12.20;99.90
15819;DHT22;8010;53.986;12.106;2023-06-14T04:30:43;12.30;99.90
15819;DHT22;8010;53.986;12.106;2023-06-14T04:33:10;12.30;99.90
15819;DHT22;8010;53.986;12.106;2023-06-14T04:35:36;12.40;99.90
15819;DHT22;8010;53.986;12.106;2023-06-14T04:38:03;12.50;99.90
15819;DHT22;8010;53.986;12.106;2023-06-14T04:40:32;12.50;99.90
15819;DHT22;8010;53.986;12.106;2023-06-14T04:42:59;12.60;99.90
15819;DHT22;8010;53.986;12.106;2023-06-14T04:45:24;12.80;99.90
15819;DHT22;8010;53.986;12.106;2023-06-14T04:47:58;12.90;99.90
15819;DHT22;8010;53.986;12.106;2023-06-14T04:50:24;13.00;99.90
15819;DHT22;8010;53.986;12.106;2023-06-14T04:52:50;13.10;99.90
15819;DHT22;8010;53.986;12.106;2023-06-14T04:55:17;13.20;99.90
15819;DHT22;8010;53.986;12.106;2023-06-14T04:57:44;13.40;99.90
15819;DHT22;8010;53.986;12.106;2023-06-14T05:00:10;13.50;99.90
15819;DHT22;8010;53.986;12.106;2023-06-14T05:02:36;13.60;99.90
15819;DHT22;8010;53.986;12.106;2023-06-14T05:05:04;13.70;99.90
15819;DHT22;8010;53.986;12.106;2023-06-14T05:07:32;13.80;99.90
15819;DHT22;8010;53.986;12.106;2023-06-14T05:09:59;13.90;99.90
15819;DHT22;8010;53.986;12.106;2023-06-14T05:12:25;14.00;99.90
15819;DHT22;8010;53.986;12.106;2023-06-14T05:14:50;14.10;99.90
15819;DHT22;8010;53.986;12.106;2023-06-14T05:17:16;14.20;99.90
15819;DHT22;8010;53.986;12.106;2023-06-14T05:19:42;14.30;99.90
15819;DHT22;8010;53.986;12.106;2023-06-14T05:22:08;14.40;99.90
15819;DHT22;8010;53.986;12.106;2023-06-14T05:24:33;14.50;99.90
15819;DHT22;8010;53.986;12.106;2023-06-14T05:26:59;14.60;99.90
15819;DHT22;8010;53.986;12.106;2023-06-14T05:29:24;14.80;99.90
15819;DHT22;8010;53.986;12.106;2023-06-14T05:31:51;14.90;99.90
15819;DHT22;8010;53.986;12.106;2023-06-14T05:34:16;15.00;99.90
15819;DHT22;8010;53.986;12.106;2023-06-14T05:36:42;15.10;99.90
15819;DHT22;8010;53.986;12.106;2023-06-14T05:39:07;15.20;99.90
15819;DHT22;8010;53.986;12.106;2023-06-14T05:41:33;15.40;99.90
15819;DHT22;8010;53.986;12.106;2023-06-14T05:43:59;15.50;99.90
15819;DHT22;8010;53.986;12.106;2023-06-14T05:46:26;15.60;99.90
15819;DHT22;8010;53.986;12.106;2023-06-14T05:48:52;15.70;99.90
15819;DHT22;8010;53.986;12.106;2023-06-14T05:51:18;15.80;99.90
15819;DHT22;8010;53.986;12.106;2023-06-14T05:53:46;15.90;99.90
15819;DHT22;8010;53.986;12.106;2023-06-14T05:56:13;16.00;99.90
15819;DHT22;8010;53.986;12.106;2023-06-14T05:58:39;16.10;99.90
15819;DHT22;8010;53.986;12.106;2023-06-14T06:01:04;16.30;99.90
15819;DHT22;8010;53.986;12.106;2023-06-14T06:03:30;16.40;99.90
15819;DHT22;8010;53.986;12.106;2023-06-14T06:05:56;16.50;99.90
15819;DHT22;8010;53.986;12.106;2023-06-14T06:08:21;16.70;99.90
15819;DHT22;8010;53.986;12.106;2023-06-14T06:10:47;16.80;99.90
15819;DHT22;8010;53.986;12.106;2023-06-14T06:13:12;16.90;99.90
15819;DHT22;8010;53.986;12.106;2023-06-14T06:15:38;17.00;99.90
15819;DHT22;8010;53.986;12.106;2023-06-14T06:18:04;17.10;99.90
15819;DHT22;8010;53.986;12.106;2023-06-14T06:20:29;17.20;99.90
15819;DHT22;8010;53.986;12.106;2023-06-14T06:23:00;17.30;99.90
15819;DHT22;8010;53.986;12.106;2023-06-14T06:25:26;17.50;99.90
15819;DHT22;8010;53.986;12.106;2023-06-14T06:27:53;17.60;99.90
15819;DHT22;8010;53.986;12.106;2023-06-14T06:30:19;17.70;99.90
15819;DHT22;8010;53.986;12.106;2023-06-14T06:32:45;17.90;99.90
15819;DHT22;8010;53.986;12.106;2023-06-14T06:35:11;18.10;99.90
15819;DHT22;8010;53.986;12.106;2023-06-14T06:37:38;18.20;99.90
15819;DHT22;8010;53.986;12.106;2023-06-14T06:40:04;18.40;99.90
15819;DHT22;8010;53.986;12.106;2023-06-14T06:42:34;18.60;99.90
15819;DHT22;8010;53.986;12.106;2023-06-14T06:44:59;18.70;99.90
15819;DHT22;8010;53.986;12.106;2023-06-14T06:47:25;18.90;99.90
15819;DHT22;8010;53.986;12.106;2023-06-14T06:49:51;19.00;99.90
15819;DHT22;8010;53.986;12.106;2023-06-14T06:52:16;19.20;99.90
15819;DHT22;8010;53.986;12.106;2023-06-14T06:54:42;19.30;99.90
15819;DHT22;8010;53.986;12.106;2023-06-14T06:57:08;19.50;99.90
15819;DHT22;8010;53.986;12.106;2023-06-14T06:59:34;19.60;99.90
15819;DHT22;8010;53.986;12.106;2023-06-14T07:02:00;19.60;99.90
15819;DHT22;8010;53.986;12.106;2023-06-14T07:04:25;19.70;99.90
15819;DHT22;8010;53.986;12.106;2023-06-14T07:06:51;19.80;99.90
15819;DHT22;8010;53.986;12.106;2023-06-14T07:09:17;20.00;99.90
15819;DHT22;8010;53.986;12.106;2023-06-14T07:11:43;20.20;99.90
15819;DHT22;8010;53.986;12.106;2023-06-14T07:14:09;20.40;99.90
15819;DHT22;8010;53.986;12.106;2023-06-14T07:16:35;20.40;99.90
15819;DHT22;8010;53.986;12.106;2023-06-14T07:19:02;20.60;99.90
15819;DHT22;8010;53.986;12.106;2023-06-14T07:21:28;20.70;99.90
15819;DHT22;8010;53.986;12.106;2023-06-14T07:23:54;20.90;99.90
15819;DHT22;8010;53.986;12.106;2023-06-14T07:26:20;21.10;99.90
15819;DHT22;8010;53.986;12.106;2023-06-14T07:28:47;21.30;99.90
15819;DHT22;8010;53.986;12.106;2023-06-14T07:31:13;21.30;99.90
15819;DHT22;8010;53.986;12.106;2023-06-14T07:33:40;21.40;99.90
15819;DHT22;8010;53.986;12.106;2023-06-14T07:36:05;21.60;99.90
15819;DHT22;8010;53.986;12.106;2023-06-14T07:38:31;21.80;99.90
15819;DHT22;8010;53.986;12.106;2023-06-14T07:40:57;21.90;99.90
15819;DHT22;8010;53.986;12.106;2023-06-14T07:43:22;22.10;99.90
15819;DHT22;8010;53.986;12.106;2023-06-14T07:45:48;22.20;99.90
15819;DHT22;8010;53.986;12.106;2023-06-14T07:48:13;22.20;99.90
15819;DHT22;8010;53.986;12.106;2023-06-14T07:50:39;22.40;99.90
15819;DHT22;8010;53.986;12.106;2023-06-14T07:53:04;22.60;99.90
15819;DHT22;8010;53.986;12.106;2023-06-14T07:55:30;22.80;99.90
15819;DHT22;8010;53.986;12.106;2023-06-14T07:57:58;22.80;99.90
15819;DHT22;8010;53.986;12.106;2023-06-14T08:00:23;22.90;99.90
15819;DHT22;8010;53.986;12.106;2023-06-14T08:02:49;23.00;99.90
15819;DHT22;8010;53.986;12.106;2023-06-14T08:05:17;23.20;99.90
15819;DHT22;8010;53.986;12.106;2023-06-14T08:07:43;23.30;99.90
15819;DHT22;8010;53.986;12.106;2023-06-14T08:10:08;23.60;99.90
15819;DHT22;8010;53.986;12.106;2023-06-14T08:12:34;23.70;99.90
15819;DHT22;8010;53.986;12.106;2023-06-14T08:15:00;24.00;99.90
15819;DHT22;8010;53.986;12.106;2023-06-14T08:17:26;24.00;99.90
15819;DHT22;8010;53.986;12.106;2023-06-14T08:19:52;23.90;99.90
15819;DHT22;8010;53.986;12.106;2023-06-14T08:22:20;23.80;99.90
15819;DHT22;8010;53.986;12.106;2023-06-14T08:24:47;24.00;99.90
15819;DHT22;8010;53.986;12.106;2023-06-14T08:27:12;23.80;99.90
15819;DHT22;8010;53.986;12.106;2023-06-14T08:29:38;23.60;99.90
15819;DHT22;8010;53.986;12.106;2023-06-14T08:32:06;23.30;99.90
15819;DHT22;8010;53.986;12.106;2023-06-14T08:34:32;23.20;99.90
15819;DHT22;8010;53.986;12.106;2023-06-14T08:36:57;23.00;99.90
15819;DHT22;8010;53.986;12.106;2023-06-14T08:39:23;22.90;99.90
15819;DHT22;8010;53.986;12.106;2023-06-14T08:41:49;22.80;99.90
15819;DHT22;8010;53.986;12.106;2023-06-14T08:44:16;22.90;99.90
15819;DHT22;8010;53.986;12.106;2023-06-14T08:46:42;23.40;99.90
15819;DHT22;8010;53.986;12.106;2023-06-14T08:49:11;24.00;99.90
15819;DHT22;8010;53.986;12.106;2023-06-14T08:51:37;24.40;99.90
15819;DHT22;8010;53.986;12.106;2023-06-14T08:54:04;24.80;99.90
15819;DHT22;8010;53.986;12.106;2023-06-14T08:56:31;24.60;99.90
15819;DHT22;8010;53.986;12.106;2023-06-14T08:59:00;24.40;99.90
15819;DHT22;8010;53.986;12.106;2023-06-14T09:01:32;24.60;99.90
15819;DHT22;8010;53.986;12.106;2023-06-14T09:03:59;25.00;99.90
15819;DHT22;8010;53.986;12.106;2023-06-14T09:06:25;25.40;99.90
15819;DHT22;8010;53.986;12.106;2023-06-14T09:08:51;25.80;99.90
15819;DHT22;8010;53.986;12.106;2023-06-14T09:11:18;25.60;99.90
15819;DHT22;8010;53.986;12.106;2023-06-14T09:13:45;25.40;99.90
15819;DHT22;8010;53.986;12.106;2023-06-14T09:16:11;25.30;99.90
15819;DHT22;8010;53.986;12.106;2023-06-14T09:18:42;25.40;99.90
15819;DHT22;8010;53.986;12.106;2023-06-14T09:21:10;25.60;99.90
15819;DHT22;8010;53.986;12.106;2023-06-14T09:23:41;25.90;99.90
15819;DHT22;8010;53.986;12.106;2023-06-14T09:26:15;26.40;99.90
15819;DHT22;8010;53.986;12.106;2023-06-14T09:28:44;26.70;99.90
15819;DHT22;8010;53.986;12.106;2023-06-14T09:31:18;26.60;99.90
15819;DHT22;8010;53.986;12.106;2023-06-14T09:33:48;26.80;99.90
15819;DHT22;8010;53.986;12.106;2023-06-14T09:36:24;27.10;99.90
15819;DHT22;8010;53.986;12.106;2023-06-14T09:39:02;27.60;99.90
15819;DHT22;8010;53.986;12.106;2023-06-14T09:41:40;26.50;99.90
15819;DHT22;8010;53.986;12.106;2023-06-14T09:44:09;26.60;99.90
15819;DHT22;8010;53.986;12.106;2023-06-14T09:46:36;27.00;99.90
15819;DHT22;8010;53.986;12.106;2023-06-14T09:49:03;27.30;99.90
15819;DHT22;8010;53.986;12.106;2023-06-14T09:51:29;27.20;99.90
15819;DHT22;8010;53.986;12.106;2023-06-14T09:54:02;27.50;99.90
15819;DHT22;8010;53.986;12.106;2023-06-14T09:56:35;27.90;99.90
15819;DHT22;8010;53.986;12.106;2023-06-14T09:59:04;28.30;99.90
15819;DHT22;8010;53.986;12.106;2023-06-14T10:01:31;28.70;99.90
15819;DHT22;8010;53.986;12.106;2023-06-14T10:04:07;29.00;99.90
15819;DHT22;8010;53.986;12.106;2023-06-14T10:06:36;29.00;99.90
15819;DHT22;8010;53.986;12.106;2023-06-14T10:09:04;28.20;99.90
15819;DHT22;8010;53.986;12.106;2023-06-14T10:11:31;28.00;99.90
15819;DHT22;8010;53.986;12.106;2023-06-14T10:13:58;28.20;99.90
15819;DHT22;8010;53.986;12.106;2023-06-14T10:21:49;27.70;99.90
15819;DHT22;8010;53.986;12.106;2023-06-14T10:24:18;27.70;99.90
15819;DHT22;8010;53.986;12.106;2023-06-14T10:26:53;27.90;99.90
15819;DHT22;8010;53.986;12.106;2023-06-14T10:29:18;28.00;99.90
15819;DHT22;8010;53.986;12.106;2023-06-14T10:31:46;28.50;99.90
15819;DHT22;8010;53.986;12.106;2023-06-14T10:34:20;28.80;99.90
15819;DHT22;8010;53.986;12.106;2023-06-14T10:37:00;29.30;99.90
15819;DHT22;8010;53.986;12.106;2023-06-14T10:39:27;29.10;99.90
15819;DHT22;8010;53.986;12.106;2023-06-14T10:41:54;28.60;99.90
15819;DHT22;8010;53.986;12.106;2023-06-14T10:49:19;28.50;99.90
15819;DHT22;8010;53.986;12.106;2023-06-14T10:51:54;28.10;99.90
15819;DHT22;8010;53.986;12.106;2023-06-14T10:54:22;28.20;99.90
15819;DHT22;8010;53.986;12.106;2023-06-14T10:56:50;28.50;99.90
15819;DHT22;8010;53.986;12.106;2023-06-14T10:59:17;28.90;99.90
15819;DHT22;8010;53.986;12.106;2023-06-14T11:02:00;29.10;99.90
15819;DHT22;8010;53.986;12.106;2023-06-14T11:04:54;29.20;99.90
15819;DHT22;8010;53.986;12.106;2023-06-14T11:12:59;30.00;99.20
15819;DHT22;8010;53.986;12.106;2023-06-14T11:15:31;30.40;99.90
15819;DHT22;8010;53.986;12.106;2023-06-14T11:17:58;30.70;99.00
15819;DHT22;8010;53.986;12.106;2023-06-14T11:20:26;31.00;97.50
15819;DHT22;8010;53.986;12.106;2023-06-14T11:22:53;31.10;97.80
15819;DHT22;8010;53.986;12.106;2023-06-14T11:25:19;30.90;97.80
15819;DHT22;8010;53.986;12.106;2023-06-14T11:27:45;30.30;96.90
15819;DHT22;8010;53.986;12.106;2023-06-14T11:30:12;29.80;96.90
15819;DHT22;8010;53.986;12.106;2023-06-14T11:32:38;29.10;97.90
15819;DHT22;8010;53.986;12.106;2023-06-14T11:35:04;29.20;96.60
15819;DHT22;8010;53.986;12.106;2023-06-14T11:37:31;29.70;99.00
15819;DHT22;8010;53.986;12.106;2023-06-14T11:40:00;30.00;97.70
15819;DHT22;8010;53.986;12.106;2023-06-14T11:42:29;29.90;97.70
15819;DHT22;8010;53.986;12.106;2023-06-14T11:44:55;29.70;98.10
15819;DHT22;8010;53.986;12.106;2023-06-14T11:47:21;29.70;97.70
15819;DHT22;8010;53.986;12.106;2023-06-14T11:49:47;29.60;98.00
15819;DHT22;8010;53.986;12.106;2023-06-14T11:52:13;29.70;97.30
15819;DHT22;8010;53.986;12.106;2023-06-14T11:54:40;29.40;96.90
15819;DHT22;8010;53.986;12.106;2023-06-14T11:57:07;28.90;97.10
15819;DHT22;8010;53.986;12.106;2023-06-14T11:59:39;28.90;97.80
15819;DHT22;8010;53.986;12.106;2023-06-14T12:02:05;29.10;98.40
15819;DHT22;8010;53.986;12.106;2023-06-14T12:04:32;29.70;98.10
15819;DHT22;8010;53.986;12.106;2023-06-14T12:07:08;30.30;97.30
15819;DHT22;8010;53.986;12.106;2023-06-14T12:09:35;30.60;96.70
15819;DHT22;8010;53.986;12.106;2023-06-14T12:12:00;30.60;95.70
15819;DHT22;8010;53.986;12.106;2023-06-14T12:14:32;30.70;95.40
15819;DHT22;8010;53.986;12.106;2023-06-14T12:17:05;30.30;95.30
15819;DHT22;8010;53.986;12.106;2023-06-14T12:19:40;29.90;96.20
15819;DHT22;8010;53.986;12.106;2023-06-14T12:22:07;30.10;95.50
15819;DHT22;8010;53.986;12.106;2023-06-14T12:24:34;30.40;95.70
15819;DHT22;8010;53.986;12.106;2023-06-14T12:27:00;30.60;93.30
15819;DHT22;8010;53.986;12.106;2023-06-14T12:29:25;30.80;94.20
15819;DHT22;8010;53.986;12.106;2023-06-14T12:31:51;30.90;92.20
15819;DHT22;8010;53.986;12.106;2023-06-14T12:34:19;30.60;93.20
15819;DHT22;8010;53.986;12.106;2023-06-14T12:36:45;30.10;94.60
15819;DHT22;8010;53.986;12.106;2023-06-14T12:39:12;30.00;94.80
15819;DHT22;8010;53.986;12.106;2023-06-14T12:41:37;30.30;95.00
15819;DHT22;8010;53.986;12.106;2023-06-14T12:44:03;30.20;95.00
15819;DHT22;8010;53.986;12.106;2023-06-14T12:46:31;30.50;95.30
15819;DHT22;8010;53.986;12.106;2023-06-14T12:48:57;30.90;95.60
15819;DHT22;8010;53.986;12.106;2023-06-14T12:51:23;31.40;94.60
15819;DHT22;8010;53.986;12.106;2023-06-14T12:53:50;31.50;93.10
15819;DHT22;8010;53.986;12.106;2023-06-14T12:56:15;31.40;93.80
15819;DHT22;8010;53.986;12.106;2023-06-14T12:58:41;31.20;91.60
15819;DHT22;8010;53.986;12.106;2023-06-14T13:01:07;31.10;93.30
15819;DHT22;8010;53.986;12.106;2023-06-14T13:03:33;31.30;93.30
15819;DHT22;8010;53.986;12.106;2023-06-14T13:06:00;31.60;92.40
15819;DHT22;8010;53.986;12.106;2023-06-14T13:08:26;31.50;92.40
15819;DHT22;8010;53.986;12.106;2023-06-14T13:10:51;31.70;93.00
15819;DHT22;8010;53.986;12.106;2023-06-14T13:13:17;31.60;91.30
15819;DHT22;8010;53.986;12.106;2023-06-14T13:15:42;31.60;91.60
15819;DHT22;8010;53.986;12.106;2023-06-14T13:18:09;31.60;91.90
15819;DHT22;8010;53.986;12.106;2023-06-14T13:20:34;31.70;92.70
15819;DHT22;8010;53.986;12.106;2023-06-14T13:23:00;32.00;91.90
15819;DHT22;8010;53.986;12.106;2023-06-14T13:25:27;31.90;90.10
15819;DHT22;8010;53.986;12.106;2023-06-14T13:27:52;31.80;90.50
15819;DHT22;8010;53.986;12.106;2023-06-14T13:30:18;32.00;91.20
15819;DHT22;8010;53.986;12.106;2023-06-14T13:32:44;32.00;91.70
15819;DHT22;8010;53.986;12.106;2023-06-14T13:35:09;32.10;91.20
15819;DHT22;8010;53.986;12.106;2023-06-14T13:37:35;31.90;91.40
15819;DHT22;8010;53.986;12.106;2023-06-14T13:40:00;31.90;91.10
15819;DHT22;8010;53.986;12.106;2023-06-14T13:42:26;32.00;91.40
15819;DHT22;8010;53.986;12.106;2023-06-14T13:44:51;32.40;90.90
15819;DHT22;8010;53.986;12.106;2023-06-14T13:47:17;31.10;92.10
15819;DHT22;8010;53.986;12.106;2023-06-14T13:49:43;31.10;91.40
15819;DHT22;8010;53.986;12.106;2023-06-14T13:52:09;31.40;91.70
15819;DHT22;8010;53.986;12.106;2023-06-14T13:54:34;31.70;90.80
15819;DHT22;8010;53.986;12.106;2023-06-14T13:57:01;31.80;91.10
15819;DHT22;8010;53.986;12.106;2023-06-14T13:59:26;31.60;90.60
15819;DHT22;8010;53.986;12.106;2023-06-14T14:01:52;31.10;88.50
15819;DHT22;8010;53.986;12.106;2023-06-14T14:04:17;30.70;91.20
15819;DHT22;8010;53.986;12.106;2023-06-14T14:06:43;30.70;91.00
15819;DHT22;8010;53.986;12.106;2023-06-14T14:09:08;30.80;90.20
15819;DHT22;8010;53.986;12.106;2023-06-14T14:11:34;30.70;88.40
15819;DHT22;8010;53.986;12.106;2023-06-14T14:14:00;31.90;90.50
15819;DHT22;8010;53.986;12.106;2023-06-14T14:16:26;30.70;90.30
15819;DHT22;8010;53.986;12.106;2023-06-14T14:18:52;30.90;91.00
15819;DHT22;8010;53.986;12.106;2023-06-14T14:21:17;30.90;91.30
15819;DHT22;8010;53.986;12.106;2023-06-14T14:23:43;31.10;91.00
15819;DHT22;8010;53.986;12.106;2023-06-14T14:26:09;31.30;90.50
15819;DHT22;8010;53.986;12.106;2023-06-14T14:28:34;31.40;90.00
15819;DHT22;8010;53.986;12.106;2023-06-14T14:31:01;31.40;88.90
15819;DHT22;8010;53.986;12.106;2023-06-14T14:33:27;31.40;89.00
15819;DHT22;8010;53.986;12.106;2023-06-14T14:35:52;31.40;88.30
15819;DHT22;8010;53.986;12.106;2023-06-14T14:38:18;31.50;88.60
15819;DHT22;8010;53.986;12.106;2023-06-14T14:40:44;31.60;89.60
15819;DHT22;8010;53.986;12.106;2023-06-14T14:43:10;31.70;87.70
15819;DHT22;8010;53.986;12.106;2023-06-14T14:45:36;31.80;88.80
15819;DHT22;8010;53.986;12.106;2023-06-14T14:48:02;31.70;86.70
15819;DHT22;8010;53.986;12.106;2023-06-14T14:50:28;31.50;84.50
15819;DHT22;8010;53.986;12.106;2023-06-14T14:52:53;31.40;87.60
15819;DHT22;8010;53.986;12.106;2023-06-14T14:55:19;31.30;88.10
15819;DHT22;8010;53.986;12.106;2023-06-14T14:57:46;32.30;89.10
15819;DHT22;8010;53.986;12.106;2023-06-14T15:00:12;31.10;87.80
15819;DHT22;8010;53.986;12.106;2023-06-14T15:02:38;31.20;88.00
15819;DHT22;8010;53.986;12.106;2023-06-14T15:05:03;31.10;89.10
15819;DHT22;8010;53.986;12.106;2023-06-14T15:07:30;30.90;87.80
15819;DHT22;8010;53.986;12.106;2023-06-14T15:09:57;30.90;89.50
15819;DHT22;8010;53.986;12.106;2023-06-14T15:12:23;31.90;90.40
15819;DHT22;8010;53.986;12.106;2023-06-14T15:14:52;31.30;87.90
15819;DHT22;8010;53.986;12.106;2023-06-14T15:17:18;31.00;87.90
15819;DHT22;8010;53.986;12.106;2023-06-14T15:19:45;30.90;90.00
15819;DHT22;8010;53.986;12.106;2023-06-14T15:22:11;30.90;89.00
15819;DHT22;8010;53.986;12.106;2023-06-14T15:24:36;31.10;90.00
15819;DHT22;8010;53.986;12.106;2023-06-14T15:27:02;31.20;90.10
15819;DHT22;8010;53.986;12.106;2023-06-14T15:29:28;31.10;88.40
15819;DHT22;8010;53.986;12.106;2023-06-14T15:31:53;31.20;87.80
15819;DHT22;8010;53.986;12.106;2023-06-14T15:34:20;31.20;87.60
15819;DHT22;8010;53.986;12.106;2023-06-14T15:36:46;31.00;87.00
15819;DHT22;8010;53.986;12.106;2023-06-14T15:39:11;31.40;86.30
15819;DHT22;8010;53.986;12.106;2023-06-14T15:41:37;30.90;85.50
15819;DHT22;8010;53.986;12.106;2023-06-14T15:44:03;32.60;89.00
15819;DHT22;8010;53.986;12.106;2023-06-14T15:46:29;31.10;87.70
15819;DHT22;8010;53.986;12.106;2023-06-14T15:48:54;31.30;84.90
15819;DHT22;8010;53.986;12.106;2023-06-14T15:51:20;30.90;86.70